UAE62P OMDB-YMML
Flight info
| Callsign | UAE62P |
|---|---|
| Flight time | N/A |
| Altitude | 29000 |
| Route | ANVIX L223 TARDI N629 GIDAN P570 EMURU M300 VASTU P895 AKLON/N0506F310 P895 BIKOK M641 KAT N640 ELATI DCT 07S095E/N0500F330 10S098E DCT SAKAB DCT BIBGA DCT ATLOD DCT OPALL/N0482F350 DCT LST DCT SEEMO DCT ISRED DCT DONBU DCT MTG Y53 ALAXO |
| Aircraft | B77W/H-SDE1E2E3FGHIJ2J3J4J5M1RWXY/LB1D1 |
Departure
| Time | 2026-05-04 07:59 |
|---|---|
| Airport | Dubai International Airport (OMDB) |
Arrival
| Time | N/A |
|---|---|
| Airport | Melbourne Airport (YMML) |
| Time | Latitude | Longitude | Altitude | Speed | Heading |
|---|---|---|---|---|---|
| 2026-05-04 07:38 | 25.24626 | 55.36362 | 27 ft | 0 kts | 31° |
| 2026-05-04 07:50 | 25.24616 | 55.36355 | 26 ft | 2 kts | 32° |
| 2026-05-04 07:50 | 25.24602 | 55.36345 | 26 ft | 2 kts | 34° |
| 2026-05-04 07:51 | 25.24588 | 55.36335 | 24 ft | 2 kts | 37° |
| 2026-05-04 07:51 | 25.24575 | 55.36323 | 25 ft | 2 kts | 45° |
| 2026-05-04 07:51 | 25.24565 | 55.36309 | 24 ft | 2 kts | 78° |
| 2026-05-04 07:51 | 25.24567 | 55.36295 | 24 ft | 1 kts | 121° |
| 2026-05-04 07:52 | 25.24567 | 55.36294 | 24 ft | 0 kts | 121° |
| 2026-05-04 07:52 | 25.24561 | 55.36304 | 26 ft | 4 kts | 121° |
| 2026-05-04 07:52 | 25.24537 | 55.36348 | 27 ft | 8 kts | 122° |
| 2026-05-04 07:53 | 25.24494 | 55.36425 | 27 ft | 13 kts | 122° |
| 2026-05-04 07:54 | 25.24773 | 55.36996 | 27 ft | 18 kts | 122° |
| 2026-05-04 07:55 | 25.24708 | 55.37110 | 27 ft | 18 kts | 122° |
| 2026-05-04 07:55 | 25.24644 | 55.37225 | 27 ft | 18 kts | 122° |
| 2026-05-04 07:55 | 25.24580 | 55.37340 | 27 ft | 18 kts | 122° |
| 2026-05-04 07:55 | 25.24515 | 55.37455 | 27 ft | 18 kts | 122° |
| 2026-05-04 07:56 | 25.24451 | 55.37569 | 27 ft | 18 kts | 122° |
| 2026-05-04 07:56 | 25.24390 | 55.37681 | 27 ft | 16 kts | 113° |
| 2026-05-04 07:56 | 25.24442 | 55.37780 | 27 ft | 16 kts | 40° |
| 2026-05-04 07:56 | 25.24533 | 55.37851 | 26 ft | 16 kts | 34° |
| 2026-05-04 07:57 | 25.24624 | 55.37921 | 27 ft | 16 kts | 34° |
| 2026-05-04 07:57 | 25.24678 | 55.37961 | 27 ft | 2 kts | 31° |
| 2026-05-04 07:57 | 25.24698 | 55.37974 | 27 ft | 6 kts | 31° |
| 2026-05-04 07:57 | 25.24730 | 55.37996 | 27 ft | 6 kts | 31° |
| 2026-05-04 07:58 | 25.24763 | 55.38018 | 27 ft | 6 kts | 31° |
| 2026-05-04 07:58 | 25.24811 | 55.38015 | 27 ft | 8 kts | 314° |
| 2026-05-04 07:58 | 25.24852 | 55.37946 | 27 ft | 18 kts | 301° |
| 2026-05-04 07:58 | 25.25016 | 55.37651 | 27 ft | 81 kts | 301° |
| 2026-05-04 07:59 | 25.25438 | 55.36889 | 27 ft | 150 kts | 301° |
| 2026-05-04 07:59 | 25.26086 | 55.35722 | 155 ft | 195 kts | 301° |
| 2026-05-04 07:59 | 25.26807 | 55.34411 | 724 ft | 200 kts | 301° |
| 2026-05-04 07:59 | 25.27555 | 55.33062 | 1299 ft | 209 kts | 300° |
| 2026-05-04 08:00 | 25.28233 | 55.31699 | 1786 ft | 202 kts | 284° |
| 2026-05-04 08:00 | 25.28150 | 55.30157 | 1770 ft | 214 kts | 250° |
| 2026-05-04 08:00 | 25.27610 | 55.28592 | 1990 ft | 220 kts | 252° |
| 2026-05-04 08:02 | 25.20868 | 55.19058 | 4445 ft | 256 kts | 201° |
| 2026-05-04 08:02 | 25.19105 | 55.18863 | 4769 ft | 265 kts | 170° |
| 2026-05-04 08:02 | 25.17417 | 55.19719 | 5029 ft | 276 kts | 136° |
| 2026-05-04 08:03 | 25.16295 | 55.21465 | 5156 ft | 286 kts | 115° |
| 2026-05-04 08:03 | 25.15393 | 55.23462 | 5459 ft | 294 kts | 116° |
| 2026-05-04 08:03 | 25.09352 | 55.36361 | 8524 ft | 307 kts | 112° |
| 2026-05-04 08:03 | 25.02461 | 55.54204 | 11838 ft | 329 kts | 112° |
| 2026-05-04 08:04 | 24.92705 | 55.72337 | 14680 ft | 369 kts | 123° |
| 2026-05-04 08:04 | 24.79653 | 55.91652 | 17480 ft | 417 kts | 125° |
| 2026-05-04 08:04 | 24.62065 | 56.10326 | 20276 ft | 454 kts | 136° |
| 2026-05-04 08:04 | 24.44671 | 56.31271 | 23074 ft | 475 kts | 129° |
| 2026-05-04 08:05 | 24.27234 | 56.53727 | 25179 ft | 494 kts | 128° |
| 2026-05-04 08:05 | 24.10937 | 56.78739 | 26985 ft | 514 kts | 127° |
| 2026-05-04 08:05 | 23.93653 | 57.04446 | 28519 ft | 532 kts | 128° |
| 2026-05-04 08:05 | 23.75737 | 57.31051 | 29070 ft | 555 kts | 128° |
| 2026-05-04 08:06 | 23.56656 | 57.57711 | 28852 ft | 555 kts | 130° |
| 2026-05-04 08:06 | 23.38083 | 57.83177 | 28658 ft | 533 kts | 130° |
| 2026-05-04 08:06 | 23.03360 | 58.34976 | 28949 ft | 539 kts | 130° |
| 2026-05-04 08:08 | 21.50485 | 59.83085 | 28654 ft | 533 kts | 130° |
| 2026-05-04 08:08 | 21.31540 | 60.07072 | 28698 ft | 524 kts | 130° |
| 2026-05-04 08:11 | 19.76344 | 62.36483 | 28791 ft | 520 kts | 122° |
| 2026-05-04 08:11 | 19.44202 | 62.88897 | 28880 ft | 536 kts | 122° |
| 2026-05-04 08:11 | 19.28025 | 63.15108 | 28732 ft | 525 kts | 122° |
| 2026-05-04 08:12 | 18.96338 | 63.66135 | 28905 ft | 522 kts | 122° |
| 2026-05-04 08:12 | 18.80180 | 63.92002 | 28947 ft | 533 kts | 122° |
| 2026-05-04 08:12 | 18.64114 | 64.17612 | 28804 ft | 528 kts | 122° |
| 2026-05-04 08:13 | 18.48112 | 64.43022 | 28725 ft | 515 kts | 122° |
| 2026-05-04 08:13 | 18.32280 | 64.68070 | 28843 ft | 515 kts | 122° |
| 2026-05-04 08:13 | 18.16247 | 64.93330 | 28966 ft | 526 kts | 122° |
| 2026-05-04 08:13 | 17.99835 | 65.19087 | 28883 ft | 530 kts | 122° |
| 2026-05-04 08:14 | 17.83541 | 65.44557 | 28758 ft | 520 kts | 122° |
| 2026-05-04 08:14 | 17.67573 | 65.69427 | 28758 ft | 510 kts | 122° |
| 2026-05-04 08:14 | 17.51924 | 65.94293 | 28929 ft | 515 kts | 121° |
| 2026-05-04 08:16 | 16.41800 | 67.70544 | 28813 ft | 519 kts | 121° |
| 2026-05-04 08:16 | 16.26076 | 67.95338 | 28753 ft | 507 kts | 121° |
| 2026-05-04 08:16 | 16.10665 | 68.19830 | 28862 ft | 507 kts | 121° |
| 2026-05-04 08:17 | 15.95263 | 68.44217 | 28986 ft | 517 kts | 122° |
| 2026-05-04 08:17 | 15.79311 | 68.69390 | 28921 ft | 523 kts | 122° |
| 2026-05-04 08:17 | 15.63397 | 68.94414 | 28788 ft | 516 kts | 122° |
| 2026-05-04 08:17 | 15.47787 | 69.18881 | 28766 ft | 504 kts | 122° |
| 2026-05-04 08:19 | 14.38088 | 70.90354 | 30100 ft | 518 kts | 123° |
| 2026-05-04 08:19 | 14.22320 | 71.15210 | 30984 ft | 522 kts | 123° |
| 2026-05-04 08:20 | 13.90664 | 71.65132 | 30766 ft | 508 kts | 123° |
| 2026-05-04 08:20 | 13.75442 | 71.89024 | 30758 ft | 494 kts | 123° |
| 2026-05-04 08:20 | 13.59339 | 72.12031 | 30910 ft | 498 kts | 131° |
| 2026-05-04 08:21 | 13.41342 | 72.34142 | 31009 ft | 512 kts | 129° |
| 2026-05-04 08:21 | 13.23289 | 72.57028 | 30913 ft | 516 kts | 130° |
| 2026-05-04 08:21 | 13.05324 | 72.79595 | 30775 ft | 506 kts | 130° |
| 2026-05-04 08:21 | 12.87933 | 73.01419 | 30759 ft | 495 kts | 130° |
| 2026-05-04 08:22 | 12.70432 | 73.23306 | 30895 ft | 499 kts | 130° |
| 2026-05-04 08:22 | 12.52666 | 73.45482 | 30988 ft | 510 kts | 130° |
| 2026-05-04 08:24 | 11.27727 | 74.99991 | 30754 ft | 501 kts | 130° |
| 2026-05-04 08:24 | 11.10096 | 75.21597 | 30743 ft | 492 kts | 130° |
| 2026-05-04 08:24 | 10.92520 | 75.43100 | 30876 ft | 498 kts | 130° |
| 2026-05-04 08:24 | 10.74584 | 75.64995 | 30957 ft | 510 kts | 131° |
| 2026-05-04 08:25 | 10.56392 | 75.87157 | 30843 ft | 510 kts | 131° |
| 2026-05-04 08:25 | 10.38419 | 76.09009 | 30722 ft | 498 kts | 131° |
| 2026-05-04 08:25 | 10.02936 | 76.51926 | 30920 ft | 504 kts | 131° |
| 2026-05-04 08:27 | 8.59116 | 78.23617 | 30771 ft | 486 kts | 131° |
| 2026-05-04 08:28 | 8.41469 | 78.44534 | 30907 ft | 494 kts | 131° |
| 2026-05-04 08:28 | 8.23344 | 78.65847 | 30931 ft | 504 kts | 132° |